Time;durP1;ratioP1;P1;durP2;ratioP2;P2;SDS_P1;SDS_P2;PMS_P1;PMS_P2;Temp;Humidity;BMP_temperature;BMP_pressure;BME280_temperature;BME280_humidity;BME280_pressure;Samples;Min_cycle;Max_cycle;Signal;HPM_P1;HPM_P2
2024/01/09 00:02:05;;;;;;;1.75;1.30;;;-3.00;99.90;;;;;;5034615;28;20058;-63
2024/01/09 00:04:30;;;;;;;1.42;1.20;;;-3.00;99.90;;;;;;5034457;28;20033;-70
2024/01/09 00:06:56;;;;;;;1.80;1.48;;;-3.00;99.90;;;;;;5016336;28;20124;-71
2024/01/09 00:09:22;;;;;;;1.20;1.10;;;-3.00;99.90;;;;;;5034395;28;20389;-72
2024/01/09 00:11:48;;;;;;;1.17;1.05;;;-3.00;99.90;;;;;;5016302;28;20101;-71
2024/01/09 00:14:15;;;;;;;1.25;1.10;;;-2.70;99.90;;;;;;5033110;28;20088;-71
2024/01/09 00:16:41;;;;;;;1.48;1.13;;;-3.00;99.90;;;;;;5016504;28;20528;-72
2024/01/09 00:19:07;;;;;;;1.40;1.20;;;-3.10;99.90;;;;;;5015745;28;20128;-71
2024/01/09 00:21:47;;;;;;;1.65;1.30;;;-3.10;99.90;;;;;;5015929;28;20122;-71
2024/01/09 00:24:13;;;;;;;0.90;0.90;;;-3.10;99.90;;;;;;5016124;28;20091;-72
2024/01/09 00:26:43;;;;;;;1.35;1.05;;;-3.10;99.90;;;;;;5015989;28;20517;-71
2024/01/09 00:29:08;;;;;;;1.40;1.30;;;-3.20;99.90;;;;;;5033724;28;20041;-72
2024/01/09 00:31:34;;;;;;;1.20;1.10;;;-3.20;99.90;;;;;;5016230;28;20045;-72
2024/01/09 00:34:00;;;;;;;1.15;1.05;;;-3.20;99.90;;;;;;5033922;28;20080;-72
2024/01/09 00:36:25;;;;;;;1.10;1.00;;;-3.20;99.90;;;;;;5015920;28;20038;-72
2024/01/09 00:38:51;;;;;;;1.35;1.20;;;-3.20;99.90;;;;;;5015863;28;20037;-71
2024/01/09 00:41:17;;;;;;;1.15;1.05;;;-3.20;99.90;;;;;;5033510;28;20389;-71
2024/01/09 00:43:43;;;;;;;1.73;1.15;;;-3.20;99.90;;;;;;4999451;28;20049;-71
2024/01/09 00:46:09;;;;;;;1.10;1.00;;;-3.20;99.90;;;;;;5015585;28;20044;-70
2024/01/09 00:48:34;;;;;;;1.30;1.20;;;-3.30;99.90;;;;;;5015846;28;20068;-70
2024/01/09 00:51:00;;;;;;;1.38;1.10;;;-3.30;99.90;;;;;;5033336;28;20049;-72
2024/01/09 00:53:26;;;;;;;1.35;1.25;;;-3.30;99.90;;;;;;5015739;28;20103;-72
2024/01/09 00:55:52;;;;;;;1.67;1.20;;;-3.30;99.90;;;;;;5015669;28;20037;-72
2024/01/09 00:58:18;;;;;;;1.35;1.23;;;-3.40;99.90;;;;;;4999239;28;20128;-70
2024/01/09 01:00:43;;;;;;;1.10;1.00;;;-3.40;99.90;;;;;;5033109;28;20047;-72
2024/01/09 01:03:09;;;;;;;1.20;1.10;;;-3.40;99.90;;;;;;5033512;28;20045;-72
2024/01/09 01:05:35;;;;;;;1.40;1.30;;;-3.40;99.90;;;;;;5015577;28;20045;-72
2024/01/09 01:08:01;;;;;;;1.45;1.27;;;-3.40;99.90;;;;;;5033265;28;20049;-72
2024/01/09 01:10:26;;;;;;;1.52;1.30;;;-3.40;99.90;;;;;;5015302;28;20489;-71
2024/01/09 01:12:52;;;;;;;1.20;1.10;;;-3.40;99.90;;;;;;5015226;28;20045;-72
2024/01/09 01:15:18;;;;;;;1.35;1.25;;;-3.50;99.90;;;;;;5015480;28;20033;-72
2024/01/09 01:17:44;;;;;;;4.40;1.15;;;-3.40;99.90;;;;;;5015055;28;20045;-73
2024/01/09 01:20:16;;;;;;;1.30;1.20;;;-3.50;99.90;;;;;;5032543;28;20204;-70
2024/01/09 01:22:42;;;;;;;1.40;1.30;;;-3.50;99.90;;;;;;5015118;28;20091;-72
2024/01/09 01:25:09;;;;;;;1.00;1.00;;;-3.50;99.90;;;;;;5014850;28;20493;-72
2024/01/09 01:27:34;;;;;;;1.40;1.30;;;-3.50;99.90;;;;;;5032636;28;20065;-71
2024/01/09 01:30:00;;;;;;;1.40;1.20;;;-3.50;99.90;;;;;;5033007;28;20044;-72
2024/01/09 01:32:26;;;;;;;0.90;0.90;;;-3.50;99.90;;;;;;5014955;28;20474;-72
2024/01/09 01:34:51;;;;;;;1.45;1.35;;;-3.50;99.90;;;;;;5032896;28;20033;-72
2024/01/09 01:37:17;;;;;;;1.38;1.13;;;-3.50;99.90;;;;;;5014920;28;20444;-72
2024/01/09 01:39:42;;;;;;;1.60;1.50;;;-3.50;99.90;;;;;;5015033;28;20050;-71
2024/01/09 01:42:08;;;;;;;1.55;1.00;;;-3.50;99.90;;;;;;5014744;28;20049;-71
2024/01/09 01:44:35;;;;;;;1.10;1.00;;;-3.50;99.90;;;;;;5032748;28;20440;-73
2024/01/09 01:47:01;;;;;;;1.58;1.40;;;-3.50;99.90;;;;;;5032535;28;20400;-72
2024/01/09 01:49:27;;;;;;;1.63;1.52;;;-3.60;99.90;;;;;;5014913;28;20128;-72
2024/01/09 01:51:53;;;;;;;1.23;1.13;;;-3.60;99.90;;;;;;5014555;28;20120;-73
2024/01/09 01:54:21;;;;;;;1.30;1.20;;;-3.60;99.90;;;;;;5032428;28;20034;-71
2024/01/09 01:56:47;;;;;;;2.08;1.70;;;-3.60;99.90;;;;;;5032142;28;20041;-71
2024/01/09 01:59:16;;;;;;;0.90;0.90;;;-3.60;99.90;;;;;;5014416;28;20472;-72
2024/01/09 02:01:44;;;;;;;1.90;1.33;;;-3.60;99.90;;;;;;5014618;28;20046;-72
2024/01/09 02:04:11;;;;;;;1.38;1.15;;;-3.60;99.90;;;;;;5032414;28;20053;-63
2024/01/09 02:06:38;;;;;;;1.40;1.15;;;-3.60;99.90;;;;;;5014453;28;20045;-63
2024/01/09 02:09:04;;;;;;;1.23;1.13;;;-3.60;99.90;;;;;;5032037;28;20094;-64
2024/01/09 02:11:30;;;;;;;1.35;1.25;;;-3.60;99.90;;;;;;5032074;28;20412;-64
2024/01/09 02:13:56;;;;;;;1.08;1.00;;;-3.60;99.90;;;;;;5014481;28;20045;-63
2024/01/09 02:16:22;;;;;;;2.17;1.25;;;-3.70;99.90;;;;;;5031991;28;20060;-63
2024/01/09 02:18:47;;;;;;;1.38;1.23;;;-3.60;99.90;;;;;;5032130;28;20500;-62
2024/01/09 02:21:13;;;;;;;1.75;1.50;;;-3.70;99.90;;;;;;5031481;28;20509;-63
2024/01/09 02:23:45;;;;;;;1.70;1.48;;;-3.70;99.90;;;;;;5031759;28;20089;-63
2024/01/09 02:26:14;;;;;;;1.58;1.25;;;-3.70;99.90;;;;;;5031980;28;20139;-63
2024/01/09 02:28:49;;;;;;;1.50;1.23;;;-3.70;99.90;;;;;;5032028;28;20176;-63
2024/01/09 02:31:15;;;;;;;1.30;1.08;;;-3.70;99.90;;;;;;5032153;28;20041;-63
2024/01/09 02:33:43;;;;;;;1.48;1.38;;;-3.70;99.90;;;;;;5032013;28;20404;-63
2024/01/09 02:36:09;;;;;;;1.30;1.20;;;-3.70;99.90;;;;;;5032099;28;20039;-63
2024/01/09 02:38:35;;;;;;;1.65;1.10;;;-3.70;99.90;;;;;;5016833;28;20045;-63
2024/01/09 02:41:00;;;;;;;1.23;1.13;;;-3.70;99.90;;;;;;5036154;28;20037;-63
2024/01/09 02:43:26;;;;;;;1.42;1.33;;;-3.70;99.90;;;;;;5036130;28;20486;-63
2024/01/09 02:45:52;;;;;;;1.98;1.23;;;-3.70;99.90;;;;;;5036020;28;20598;-63
2024/01/09 02:48:17;;;;;;;1.23;1.13;;;-3.10;99.90;;;;;;5036006;28;20053;-63
2024/01/09 02:50:43;;;;;;;2.17;1.50;;;-3.80;99.90;;;;;;5035735;28;20037;-63
2024/01/09 02:53:08;;;;;;;1.35;1.20;;;-3.80;99.90;;;;;;5035758;28;20460;-63
2024/01/09 02:55:34;;;;;;;1.17;1.08;;;-3.80;99.90;;;;;;5035612;28;20037;-63
2024/01/09 02:58:00;;;;;;;1.13;1.02;;;-3.80;99.90;;;;;;5017758;28;20065;-63
2024/01/09 03:00:25;;;;;;;1.10;1.00;;;-3.80;99.90;;;;;;5035679;28;20398;-63
2024/01/09 03:02:51;;;;;;;2.00;1.20;;;-3.80;99.90;;;;;;5035722;28;20094;-63
2024/01/09 03:05:17;;;;;;;1.17;1.08;;;-3.80;99.90;;;;;;5035591;28;20091;-63
2024/01/09 03:07:43;;;;;;;2.13;1.40;;;-3.80;99.90;;;;;;5035278;28;20084;-63
2024/01/09 03:10:09;;;;;;;1.10;1.00;;;-3.80;99.90;;;;;;5035269;28;20073;-63
2024/01/09 03:12:35;;;;;;;1.20;1.10;;;-3.80;99.90;;;;;;5035591;28;20033;-63
2024/01/09 03:15:00;;;;;;;2.17;1.63;;;-3.80;99.90;;;;;;5035556;28;20083;-71
2024/01/09 03:17:26;;;;;;;2.17;1.10;;;-3.80;99.90;;;;;;5001126;28;20049;-71
2024/01/09 03:19:58;;;;;;;1.20;1.10;;;-3.80;99.90;;;;;;5016923;28;20061;-70
2024/01/09 03:22:23;;;;;;;1.38;1.10;;;-3.90;99.90;;;;;;5001618;28;20052;-71
2024/01/09 03:24:49;;;;;;;1.30;1.05;;;-3.90;99.90;;;;;;5017659;28;20053;-63
2024/01/09 03:27:15;;;;;;;1.17;1.08;;;-3.90;99.90;;;;;;5017277;28;20045;-63
2024/01/09 03:29:40;;;;;;;1.17;1.08;;;-3.90;99.90;;;;;;5017185;28;20045;-63
2024/01/09 03:32:06;;;;;;;0.90;0.90;;;-3.90;99.90;;;;;;5016995;28;20400;-63
2024/01/09 03:34:32;;;;;;;1.30;1.05;;;-3.90;99.90;;;;;;5035351;28;20553;-63
2024/01/09 03:36:57;;;;;;;1.00;0.93;;;-3.90;99.90;;;;;;5035152;28;20363;-63
2024/01/09 03:39:23;;;;;;;1.23;1.13;;;-3.90;99.90;;;;;;5017091;28;20152;-64
2024/01/09 03:41:49;;;;;;;1.25;1.15;;;-4.00;99.90;;;;;;5035009;28;20071;-63
2024/01/09 03:44:14;;;;;;;1.13;1.02;;;-4.00;99.90;;;;;;5034945;28;20489;-63
2024/01/09 03:46:40;;;;;;;1.35;1.23;;;-4.00;99.90;;;;;;5034909;28;20042;-63
2024/01/09 03:49:06;;;;;;;1.13;1.05;;;-4.00;99.90;;;;;;5034637;28;20120;-63
2024/01/09 03:51:31;;;;;;;1.30;1.17;;;-4.00;99.90;;;;;;5034787;28;20083;-63
2024/01/09 03:53:57;;;;;;;1.50;1.02;;;-4.00;99.90;;;;;;5016833;28;20393;-63
2024/01/09 03:56:25;;;;;;;1.40;1.20;;;-4.00;99.90;;;;;;5034695;28;20069;-63
2024/01/09 03:58:52;;;;;;;1.17;1.08;;;-4.00;99.90;;;;;;5034660;28;20042;-63
2024/01/09 04:01:18;;;;;;;1.48;1.38;;;-4.10;99.90;;;;;;5016850;28;20041;-63
2024/01/09 04:03:43;;;;;;;1.35;1.08;;;-4.10;99.90;;;;;;5034536;28;20048;-63
2024/01/09 04:06:09;;;;;;;1.25;1.15;;;-4.10;99.90;;;;;;5034963;28;20046;-63
2024/01/09 04:08:35;;;;;;;1.13;1.02;;;-4.10;99.90;;;;;;5016429;28;20060;-63
2024/01/09 04:11:03;;;;;;;1.25;1.15;;;-4.10;99.90;;;;;;5034439;28;20046;-63
2024/01/09 04:13:29;;;;;;;1.52;1.33;;;-4.10;99.90;;;;;;5034402;28;20049;-63
2024/01/09 04:15:55;;;;;;;1.17;1.08;;;-4.10;99.90;;;;;;5034348;28;20363;-63
2024/01/09 04:18:20;;;;;;;1.10;1.00;;;-4.10;99.90;;;;;;5033953;28;20042;-63
2024/01/09 04:20:52;;;;;;;1.20;1.10;;;-4.10;99.90;;;;;;5033794;28;20057;-63
2024/01/09 04:23:18;;;;;;;1.08;1.08;;;-4.10;99.90;;;;;;5034158;28;20041;-63
2024/01/09 04:25:44;;;;;;;1.23;1.13;;;-4.10;99.90;;;;;;5034612;28;20037;-58
2024/01/09 04:28:09;;;;;;;0.90;0.90;;;-4.20;99.90;;;;;;5017148;28;20049;-58
2024/01/09 04:30:35;;;;;;;1.20;1.10;;;-4.20;99.90;;;;;;5034975;28;20087;-58
2024/01/09 04:33:01;;;;;;;1.05;1.00;;;-4.20;99.90;;;;;;5000979;28;20095;-57
2024/01/09 04:35:26;;;;;;;1.75;1.10;;;-4.20;99.90;;;;;;5017146;28;20040;-72
2024/01/09 04:37:52;;;;;;;1.60;1.40;;;-4.20;99.90;;;;;;5015948;28;20048;-70
2024/01/09 04:40:17;;;;;;;1.33;0.98;;;-4.20;99.90;;;;;;5015909;28;20394;-71
2024/01/09 04:42:43;;;;;;;1.10;1.08;;;-4.20;99.90;;;;;;4999546;28;20045;-72
2024/01/09 04:45:09;;;;;;;1.10;1.00;;;-4.20;99.90;;;;;;5033468;28;20050;-71
2024/01/09 04:47:34;;;;;;;0.90;0.90;;;-4.20;99.90;;;;;;5033332;28;20456;-69
2024/01/09 04:50:00;;;;;;;1.10;1.00;;;-4.20;99.90;;;;;;5015681;28;20033;-71
2024/01/09 04:52:26;;;;;;;1.10;1.00;;;-4.20;99.90;;;;;;5015568;28;20568;-71
2024/01/09 04:54:51;;;;;;;1.02;1.00;;;-4.30;99.90;;;;;;5015523;28;20088;-71
2024/01/09 04:57:17;;;;;;;1.10;1.00;;;-4.30;99.90;;;;;;5015390;28;20095;-68
2024/01/09 04:59:43;;;;;;;0.98;0.90;;;-4.30;99.90;;;;;;5015435;28;20505;-73
2024/01/09 05:02:09;;;;;;;2.55;1.30;;;-4.30;99.90;;;;;;5014877;28;20060;-71
2024/01/09 05:04:35;;;;;;;1.20;1.10;;;-4.30;99.90;;;;;;5015480;28;20092;-70
2024/01/09 05:07:00;;;;;;;1.27;1.13;;;-4.30;99.90;;;;;;4999245;28;20048;-72
2024/01/09 05:09:27;;;;;;;1.45;1.00;;;-4.40;99.90;;;;;;5015229;28;20049;-72
2024/01/09 05:11:53;;;;;;;1.23;1.13;;;-4.40;99.90;;;;;;5015348;28;20067;-71
2024/01/09 05:14:18;;;;;;;1.30;1.20;;;-4.40;99.90;;;;;;5015351;28;20143;-72
2024/01/09 05:16:44;;;;;;;1.35;1.25;;;-4.40;99.90;;;;;;5015898;28;20424;-72
2024/01/09 05:19:09;;;;;;;1.33;1.23;;;-4.40;99.90;;;;;;5015590;28;20412;-69
2024/01/09 05:21:35;;;;;;;1.95;1.30;;;-4.50;99.90;;;;;;5014927;28;20769;-70
2024/01/09 05:24:07;;;;;;;1.75;1.20;;;-4.40;99.90;;;;;;5033427;28;20092;-73
2024/01/09 05:26:32;;;;;;;1.40;1.30;;;-4.40;99.90;;;;;;5015415;28;20037;-72
2024/01/09 05:28:58;;;;;;;1.10;1.05;;;-4.50;99.90;;;;;;5033181;28;20497;-72
2024/01/09 05:31:24;;;;;;;1.27;1.17;;;-4.50;99.90;;;;;;5015337;28;20646;-72
2024/01/09 05:33:50;;;;;;;1.50;1.40;;;-4.50;99.90;;;;;;5032598;28;20088;-71
2024/01/09 05:36:22;;;;;;;1.13;1.10;;;-4.50;99.90;;;;;;5015168;28;20041;-73
2024/01/09 05:38:51;;;;;;;1.05;0.98;;;-4.50;99.90;;;;;;5015025;28;20045;-71
2024/01/09 05:41:21;;;;;;;1.17;1.08;;;-4.50;99.90;;;;;;5014796;28;20049;-72
2024/01/09 05:43:48;;;;;;;1.30;1.20;;;-4.50;99.90;;;;;;5014876;28;20049;-69
2024/01/09 05:46:13;;;;;;;1.42;1.23;;;-4.50;99.90;;;;;;5032920;28;20481;-59
2024/01/09 05:48:40;;;;;;;1.30;1.20;;;-4.60;99.90;;;;;;5015624;28;20099;-59
2024/01/09 05:51:06;;;;;;;1.48;1.23;;;-4.60;99.90;;;;;;5015809;28;20095;-59
2024/01/09 05:53:32;;;;;;;1.27;1.17;;;-4.60;99.90;;;;;;5015753;28;20493;-59
2024/01/09 05:55:58;;;;;;;1.30;1.20;;;-4.60;99.90;;;;;;5015095;28;20116;-59
2024/01/09 05:58:24;;;;;;;1.23;1.13;;;-4.60;99.90;;;;;;5033330;28;20048;-59
2024/01/09 06:00:49;;;;;;;1.20;1.10;;;-4.60;99.90;;;;;;5033585;28;20049;-59
2024/01/09 06:03:15;;;;;;;1.70;1.17;;;-4.60;99.90;;;;;;5015758;28;20160;-60
2024/01/09 06:05:41;;;;;;;1.52;1.42;;;-4.60;99.90;;;;;;5015204;28;20037;-59
2024/01/09 06:08:07;;;;;;;1.33;1.23;;;-4.70;99.90;;;;;;5015450;28;20052;-58
2024/01/09 06:10:32;;;;;;;1.38;1.20;;;-4.70;99.90;;;;;;5015496;28;20033;-59
2024/01/09 06:12:58;;;;;;;1.42;1.33;;;-4.70;99.90;;;;;;5014632;28;20401;-59
2024/01/09 06:15:23;;;;;;;1.10;1.00;;;-4.60;99.90;;;;;;5015296;28;20037;-59
2024/01/09 06:17:49;;;;;;;1.10;1.00;;;-4.70;99.90;;;;;;5015306;28;20045;-59
2024/01/09 06:20:28;;;;;;;1.25;1.15;;;-4.70;99.90;;;;;;5032632;28;20081;-60
2024/01/09 06:23:01;;;;;;;1.38;1.27;;;-4.70;99.90;;;;;;5015280;28;20041;-60
2024/01/09 06:25:26;;;;;;;1.70;1.30;;;-4.70;99.90;;;;;;5015355;28;20038;-59
2024/01/09 06:27:52;;;;;;;1.10;1.00;;;-4.50;99.90;;;;;;5015081;28;20045;-59
2024/01/09 06:30:18;;;;;;;1.35;1.25;;;-4.70;99.90;;;;;;5015289;28;20064;-59
2024/01/09 06:32:44;;;;;;;0.93;0.90;;;-4.70;99.90;;;;;;4998685;28;20497;-60
2024/01/09 06:35:09;;;;;;;1.25;1.15;;;-4.80;99.90;;;;;;5015332;28;20149;-59
2024/01/09 06:37:35;;;;;;;1.40;1.30;;;-4.80;99.90;;;;;;5014918;28;20049;-60
2024/01/09 06:40:05;;;;;;;1.27;1.17;;;-4.80;99.90;;;;;;5014992;28;20478;-60
2024/01/09 06:42:33;;;;;;;1.38;1.25;;;-4.80;99.90;;;;;;5014961;28;20386;-59
2024/01/09 06:44:59;;;;;;;1.98;1.48;;;-5.10;99.90;;;;;;5032719;28;20041;-60
2024/01/09 06:47:25;;;;;;;1.58;1.48;;;-4.80;99.90;;;;;;5032246;28;20029;-72
2024/01/09 06:49:51;;;;;;;1.40;1.30;;;-4.80;99.90;;;;;;5032267;28;20030;-74
2024/01/09 06:52:16;;;;;;;1.30;1.08;;;-4.80;99.90;;;;;;5014668;28;20091;-72
2024/01/09 06:54:42;;;;;;;1.40;1.30;;;-4.80;99.90;;;;;;5014736;28;20049;-73
2024/01/09 06:57:09;;;;;;;1.48;1.20;;;-4.30;99.90;;;;;;5032941;28;20041;-59
2024/01/09 06:59:36;;;;;;;1.38;1.27;;;-4.90;99.90;;;;;;5033160;28;20447;-60
2024/01/09 07:02:01;;;;;;;1.20;1.10;;;-4.90;99.90;;;;;;5014764;28;20041;-65
2024/01/09 07:04:27;;;;;;;1.08;1.00;;;-4.90;99.90;;;;;;5031735;28;20477;-62
2024/01/09 07:06:53;;;;;;;1.30;1.20;;;-4.80;99.90;;;;;;5031458;28;20089;-63
2024/01/09 07:09:18;;;;;;;1.45;1.35;;;-4.80;99.90;;;;;;5031336;28;20064;-62
2024/01/09 07:11:44;;;;;;;1.35;1.15;;;-4.90;99.90;;;;;;5031698;28;20073;-62
2024/01/09 07:14:11;;;;;;;1.20;1.10;;;-4.80;99.90;;;;;;5031558;28;20060;-62
2024/01/09 07:16:37;;;;;;;1.30;1.20;;;-4.90;99.90;;;;;;5031622;28;20041;-62
2024/01/09 07:19:03;;;;;;;1.80;1.45;;;-4.90;99.90;;;;;;5013766;28;20049;-62
2024/01/09 07:21:35;;;;;;;1.30;1.20;;;-5.10;99.90;;;;;;5031011;28;20065;-62
2024/01/09 07:24:00;;;;;;;1.27;1.17;;;-4.90;99.90;;;;;;5033061;28;20060;-62
2024/01/09 07:26:26;;;;;;;1.48;1.25;;;-4.90;99.90;;;;;;5035100;28;20053;-63
2024/01/09 07:28:51;;;;;;;1.48;1.38;;;-4.90;99.90;;;;;;5035300;28;20099;-63
2024/01/09 07:31:17;;;;;;;1.60;1.10;;;-4.90;99.90;;;;;;5017261;28;20128;-63
2024/01/09 07:33:43;;;;;;;1.30;1.17;;;-4.90;99.90;;;;;;5017234;28;20604;-63
2024/01/09 07:36:08;;;;;;;2.20;1.25;;;-5.00;99.90;;;;;;5017365;28;20037;-63
2024/01/09 07:38:34;;;;;;;2.42;1.40;;;-4.90;99.90;;;;;;5017129;28;20080;-63
2024/01/09 07:41:00;;;;;;;1.50;1.25;;;-4.90;99.90;;;;;;5035081;28;20477;-64
2024/01/09 07:43:25;;;;;;;1.77;1.35;;;-5.00;99.90;;;;;;5035045;28;20425;-63
2024/01/09 07:45:51;;;;;;;1.33;1.10;;;-5.00;99.90;;;;;;5034950;28;20033;-63
2024/01/09 07:48:16;;;;;;;1.50;1.27;;;-5.00;99.90;;;;;;5034981;28;20393;-63
2024/01/09 07:50:42;;;;;;;1.27;1.17;;;-5.00;99.90;;;;;;5017175;28;20044;-63
2024/01/09 07:53:08;;;;;;;1.48;1.38;;;-5.00;99.90;;;;;;5034462;28;20142;-63
2024/01/09 07:55:33;;;;;;;1.50;1.17;;;-5.00;99.90;;;;;;5034840;28;20040;-63
2024/01/09 07:57:59;;;;;;;1.88;1.13;;;-5.00;99.90;;;;;;5034784;28;20091;-63
2024/01/09 08:00:25;;;;;;;1.60;1.40;;;-5.00;99.90;;;;;;5034473;28;20033;-63
2024/01/09 08:02:51;;;;;;;1.08;1.00;;;-5.00;99.90;;;;;;5016679;28;20087;-63
2024/01/09 08:05:16;;;;;;;1.33;1.23;;;-5.00;99.90;;;;;;5034375;28;20100;-63
2024/01/09 08:07:42;;;;;;;1.48;1.33;;;-4.90;99.90;;;;;;5034740;28;20038;-71
2024/01/09 08:10:08;;;;;;;1.33;1.02;;;-5.00;99.90;;;;;;5016611;28;20042;-70
2024/01/09 08:12:33;;;;;;;1.40;1.25;;;-4.90;99.90;;;;;;5016498;28;20034;-71
2024/01/09 08:14:59;;;;;;;1.25;1.10;;;-4.90;99.90;;;;;;5016849;28;20128;-72
2024/01/09 08:17:25;;;;;;;2.03;1.30;;;-4.90;99.90;;;;;;5000264;28;20037;-70
2024/01/09 08:19:57;;;;;;;1.45;1.10;;;-4.90;99.90;;;;;;5033940;28;20033;-71
2024/01/09 08:22:37;;;;;;;1.48;1.38;;;-4.80;99.90;;;;;;5034228;28;20053;-70
2024/01/09 08:25:03;;;;;;;1.45;1.35;;;-4.80;99.90;;;;;;5033957;28;20044;-70
2024/01/09 08:27:29;;;;;;;1.05;1.05;;;-4.80;99.90;;;;;;5016175;28;20052;-70
2024/01/09 08:29:54;;;;;;;0.90;0.90;;;-4.70;99.90;;;;;;5016426;28;20485;-71
2024/01/09 08:32:22;;;;;;;1.55;1.40;;;-4.70;99.90;;;;;;5033956;28;20096;-70
2024/01/09 08:34:48;;;;;;;1.27;1.17;;;-4.60;99.90;;;;;;5015538;28;20076;-70
2024/01/09 08:37:13;;;;;;;1.73;1.13;;;-4.70;99.90;;;;;;5033833;28;20458;-72
2024/01/09 08:39:39;;;;;;;0.77;0.77;;;-4.60;99.90;;;;;;5034111;28;20048;-71
2024/01/09 08:42:05;;;;;;;1.30;1.20;;;-4.50;99.90;;;;;;4999975;28;20132;-70
2024/01/09 08:44:30;;;;;;;1.20;1.10;;;-4.50;99.90;;;;;;5034163;28;20440;-71
2024/01/09 08:46:56;;;;;;;2.22;1.10;;;-4.40;99.90;;;;;;5034130;28;20087;-71
2024/01/09 08:49:22;;;;;;;1.20;1.10;;;-4.40;99.90;;;;;;5016054;28;20404;-68
2024/01/09 08:51:47;;;;;;;1.63;1.33;;;-3.80;99.90;;;;;;5015740;28;20424;-70
2024/01/09 08:54:14;;;;;;;1.33;1.20;;;-4.30;99.90;;;;;;5033854;28;20026;-72
2024/01/09 08:56:39;;;;;;;1.30;1.20;;;-4.20;99.90;;;;;;5015970;28;20069;-69
2024/01/09 08:59:07;;;;;;;1.15;1.05;;;-4.20;99.90;;;;;;5033768;28;20076;-71
2024/01/09 09:01:35;;;;;;;1.48;1.02;;;-4.10;99.90;;;;;;5033545;28;20045;-71
2024/01/09 09:04:02;;;;;;;1.30;1.20;;;-4.10;99.90;;;;;;5033414;28;20048;-71
2024/01/09 09:06:28;;;;;;;1.30;1.10;;;-4.00;99.90;;;;;;5015600;28;20127;-72
2024/01/09 09:08:54;;;;;;;1.20;1.10;;;-4.00;99.90;;;;;;5033412;28;20084;-73
2024/01/09 09:11:20;;;;;;;1.10;1.05;;;-3.90;99.90;;;;;;5033442;28;20084;-71
2024/01/09 09:13:46;;;;;;;1.90;1.33;;;-3.90;99.90;;;;;;5033489;28;20435;-72
2024/01/09 09:16:12;;;;;;;1.02;1.00;;;-3.80;99.90;;;;;;5015485;28;20124;-63
2024/01/09 09:18:37;;;;;;;1.55;1.45;;;-3.80;99.90;;;;;;5033342;28;20047;-63
2024/01/09 09:21:10;;;;;;;2.60;1.50;;;-3.80;99.90;;;;;;5032720;28;20057;-63
2024/01/09 09:23:49;;;;;;;1.33;1.23;;;-3.80;99.90;;;;;;5033100;28;20091;-63
2024/01/09 09:26:15;;;;;;;1.50;1.38;;;-3.70;99.90;;;;;;5015119;28;20049;-63
2024/01/09 09:28:43;;;;;;;1.20;1.10;;;-3.60;99.90;;;;;;5033025;28;20128;-63
2024/01/09 09:31:09;;;;;;;0.95;0.93;;;-3.60;99.90;;;;;;5032723;28;20038;-63
2024/01/09 09:33:34;;;;;;;1.75;1.55;;;-3.60;99.90;;;;;;5033035;28;20080;-63
2024/01/09 09:36:05;;;;;;;1.25;1.10;;;-3.50;99.90;;;;;;5032984;28;20480;-63
2024/01/09 09:38:32;;;;;;;1.33;1.23;;;-3.50;99.90;;;;;;5032952;28;20072;-63
2024/01/09 09:40:58;;;;;;;1.58;1.15;;;-3.50;99.90;;;;;;5032789;28;20051;-63
2024/01/09 09:43:25;;;;;;;1.33;1.13;;;-3.40;99.90;;;;;;5032622;28;20096;-63
2024/01/09 09:45:55;;;;;;;1.38;1.27;;;-3.50;99.90;;;;;;5032823;28;20041;-63
2024/01/09 09:48:23;;;;;;;1.35;1.23;;;-3.40;99.90;;;;;;5032453;28;20057;-63
2024/01/09 09:50:53;;;;;;;1.25;1.13;;;-3.40;99.90;;;;;;5032660;28;20060;-63
2024/01/09 09:53:20;;;;;;;1.88;1.67;;;-3.30;99.90;;;;;;5032703;28;20375;-63
2024/01/09 09:55:47;;;;;;;0.73;0.73;;;-3.30;99.90;;;;;;5032279;28;20033;-63
2024/01/09 09:58:12;;;;;;;1.40;0.95;;;-3.30;99.20;;;;;;5032592;28;20422;-63
2024/01/09 10:00:38;;;;;;;2.97;1.63;;;-3.20;99.60;;;;;;5032633;28;20048;-63
2024/01/09 10:03:08;;;;;;;1.42;1.33;;;-3.20;99.90;;;;;;5014503;28;20046;-63
2024/01/09 10:05:39;;;;;;;1.13;1.00;;;-3.20;99.80;;;;;;5014075;28;20111;-63
2024/01/09 10:08:11;;;;;;;1.30;1.20;;;-3.20;99.90;;;;;;5032446;28;20049;-63
2024/01/09 10:10:37;;;;;;;1.17;1.08;;;-3.20;99.00;;;;;;5032465;28;20477;-64
2024/01/09 10:13:03;;;;;;;1.88;1.25;;;-3.10;95.70;;;;;;5032310;28;20044;-63
2024/01/09 10:15:29;;;;;;;1.20;1.10;;;-3.10;97.20;;;;;;5014341;28;20045;-63
2024/01/09 10:17:55;;;;;;;1.23;1.13;;;-3.10;98.90;;;;;;5032328;28;20489;-63
2024/01/09 10:20:27;;;;;;;1.30;1.20;;;-3.00;97.50;;;;;;5031875;28;20061;-63
2024/01/09 10:23:06;;;;;;;1.15;1.05;;;-3.00;96.70;;;;;;5032113;28;20469;-64
2024/01/09 10:25:32;;;;;;;1.10;1.00;;;-2.90;98.30;;;;;;5031986;28;20033;-63
2024/01/09 10:27:58;;;;;;;1.13;1.05;;;-2.90;98.00;;;;;;5014353;28;20046;-64
2024/01/09 10:30:23;;;;;;;1.08;0.98;;;-3.00;95.70;;;;;;5014082;28;20117;-64
2024/01/09 10:32:51;;;;;;;1.15;1.10;;;-2.80;97.40;;;;;;5031855;28;20515;-64
2024/01/09 10:35:17;;;;;;;1.15;1.05;;;-2.90;85.00;;;;;;5014153;28;20091;-64
2024/01/09 10:37:44;;;;;;;1.27;1.00;;;-2.10;85.50;;;;;;5031867;28;20049;-64
2024/01/09 10:40:11;;;;;;;1.30;1.20;;;-2.90;91.10;;;;;;5032075;28;20389;-64
2024/01/09 10:42:44;;;;;;;1.20;1.10;;;-2.70;89.90;;;;;;5014091;28;20479;-63
2024/01/09 10:45:10;;;;;;;1.30;1.20;;;-2.70;90.70;;;;;;5031967;28;20476;-64
2024/01/09 10:47:36;;;;;;;1.25;1.15;;;-2.60;89.60;;;;;;5031960;28;20069;-64
2024/01/09 10:50:02;;;;;;;1.80;1.20;;;-2.60;78.40;;;;;;5032231;28;20389;-64
2024/01/09 10:52:29;;;;;;;1.00;1.00;;;-2.60;85.50;;;;;;5031715;28;20045;-64
2024/01/09 10:54:57;;;;;;;1.27;1.17;;;-2.60;80.90;;;;;;5031991;28;20037;-64
2024/01/09 10:57:24;;;;;;;1.10;1.00;;;-2.50;80.80;;;;;;5031923;28;20091;-64
2024/01/09 10:59:50;;;;;;;1.15;1.08;;;-2.40;84.00;;;;;;5034753;28;20037;-64
2024/01/09 11:02:21;;;;;;;1.40;1.30;;;-2.40;78.50;;;;;;5035879;28;20041;-64
2024/01/09 11:04:47;;;;;;;1.02;1.00;;;-2.30;61.70;;;;;;5018023;28;20045;-64
2024/01/09 11:07:14;;;;;;;1.25;1.15;;;-2.20;68.80;;;;;;5035716;28;20042;-64
2024/01/09 11:09:46;;;;;;;0.82;0.82;;;-2.10;74.70;;;;;;5035617;28;20473;-65
2024/01/09 11:12:20;;;;;;;1.17;1.10;;;-2.10;49.90;;;;;;5035726;28;20485;-64
2024/01/09 11:14:52;;;;;;;1.80;0.98;;;-2.00;59.80;;;;;;5035702;28;20044;-64
2024/01/09 11:17:20;;;;;;;1.17;1.08;;;-2.00;48.80;;;;;;5017607;28;20045;-64
2024/01/09 11:19:45;;;;;;;1.35;1.15;;;-2.00;59.10;;;;;;5017768;28;20128;-64
2024/01/09 11:22:24;;;;;;;1.30;1.20;;;-1.80;63.90;;;;;;5034787;28;20093;-64
2024/01/09 11:24:56;;;;;;;1.10;1.00;;;-1.80;61.80;;;;;;5035330;28;20050;-64
2024/01/09 11:27:22;;;;;;;1.17;1.08;;;-1.70;8.40;;;;;;5017538;28;20107;-64
2024/01/09 11:29:53;;;;;;;1.10;1.00;;;-1.70;2.00;;;;;;5017398;28;20037;-65
2024/01/09 11:32:24;;;;;;;1.70;1.38;;;-1.60;35.80;;;;;;5017266;28;20052;-64
2024/01/09 11:35:12;;;;;;;1.08;0.98;;;-1.50;28.30;;;;;;5035253;28;20041;-64
2024/01/09 11:37:40;;;;;;;1.20;1.10;;;-1.30;19.80;;;;;;5017448;28;20057;-63
2024/01/09 11:40:08;;;;;;;1.40;1.02;;;-1.10;1.00;;;;;;5034957;28;20117;-64
2024/01/09 11:42:36;;;;;;;1.13;0.93;;;-0.90;1.00;;;;;;5035113;28;20076;-65
2024/01/09 11:45:09;;;;;;;1.17;1.08;;;-0.80;1.00;;;;;;5034979;28;20033;-64
2024/01/09 11:47:39;;;;;;;1.02;0.90;;;-0.60;1.00;;;;;;5027116;28;20099;-64
2024/01/09 11:50:12;;;;;;;1.35;1.25;;;-0.60;1.00;;;;;;5035042;28;20073;-64
2024/01/09 11:52:39;;;;;;;0.90;0.90;;;-0.40;1.00;;;;;;5017217;28;20393;-64
2024/01/09 11:55:10;;;;;;;1.17;1.00;;;-0.40;99.90;;;;;;5034539;28;20057;-64
2024/01/09 11:57:36;;;;;;;0.80;0.80;;;-0.20;1.00;;;;;;5034389;28;20096;-65
2024/01/09 12:00:07;;;;;;;1.02;1.00;;;0.30;99.90;;;;;;5034803;28;20092;-64
2024/01/09 12:02:33;;;;;;;0.80;0.80;;;0.80;99.40;;;;;;5000354;28;20125;-64
2024/01/09 12:05:00;;;;;;;1.02;0.93;;;1.20;99.90;;;;;;5017255;28;20080;-64
2024/01/09 12:07:27;;;;;;;1.15;0.88;;;1.30;99.90;;;;;;5016508;28;20120;-65
2024/01/09 12:09:53;;;;;;;0.70;0.70;;;1.80;30.30;;;;;;5033301;28;20112;-64
2024/01/09 12:12:25;;;;;;;1.00;1.00;;;2.20;99.90;;;;;;5034264;28;20080;-64
2024/01/09 12:14:56;;;;;;;0.85;0.85;;;2.40;1.00;;;;;;5034449;28;20036;-64
2024/01/09 12:17:27;;;;;;;0.80;0.80;;;2.90;1.00;;;;;;5034477;28;20053;-65
2024/01/09 12:19:53;;;;;;;1.00;1.00;;;3.10;99.90;;;;;;5034481;28;20037;-64
2024/01/09 12:22:22;;;;;;;0.70;0.70;;;3.20;99.90;;;;;;5033789;28;20379;-64
2024/01/09 12:24:55;;;;;;;0.70;0.70;;;2.90;99.90;;;;;;5034035;28;20094;-64
2024/01/09 12:27:25;;;;;;;0.80;0.80;;;2.40;99.90;;;;;;5034250;28;20037;-64
2024/01/09 12:29:51;;;;;;;0.80;0.80;;;2.00;99.90;;;;;;5034262;28;20037;-64
2024/01/09 12:32:18;;;;;;;0.82;0.82;;;1.70;99.90;;;;;;5034568;28;20037;-65
2024/01/09 12:34:45;;;;;;;2.70;1.02;;;1.40;99.90;;;;;;5034203;28;20033;-65
2024/01/09 12:37:11;;;;;;;0.70;0.70;;;1.20;99.90;;;;;;5034067;28;20041;-65
2024/01/09 12:39:37;;;;;;;0.93;0.80;;;1.00;99.90;;;;;;5034161;28;20600;-65
2024/01/09 12:42:12;;;;;;;0.75;0.75;;;1.00;99.90;;;;;;5034048;28;20120;-65
2024/01/09 12:44:38;;;;;;;1.20;1.00;;;0.80;99.90;;;;;;5015925;28;20401;-65
2024/01/09 12:47:07;;;;;;;1.25;0.90;;;0.80;99.90;;;;;;5033863;28;20037;-59